sensor_id;sensor_type;location;lat;lon;timestamp;P1;durP1;ratioP1;P2;durP2;ratioP2
27839;SDS011;15207;42.182;24.308;2023-04-15T00:00:39;5.53;;;3.37;;
27839;SDS011;15207;42.182;24.308;2023-04-15T00:03:05;6.13;;;2.80;;
27839;SDS011;15207;42.182;24.308;2023-04-15T00:05:50;6.43;;;2.97;;
27839;SDS011;15207;42.182;24.308;2023-04-15T00:08:16;5.82;;;3.25;;
27839;SDS011;15207;42.182;24.308;2023-04-15T00:10:41;5.43;;;2.97;;
27839;SDS011;15207;42.182;24.308;2023-04-15T00:13:08;5.68;;;3.42;;
27839;SDS011;15207;42.182;24.308;2023-04-15T00:15:34;6.72;;;3.40;;
27839;SDS011;15207;42.182;24.308;2023-04-15T00:17:59;5.97;;;3.70;;
27839;SDS011;15207;42.182;24.308;2023-04-15T00:20:25;5.30;;;3.40;;
27839;SDS011;15207;42.182;24.308;2023-04-15T00:22:50;6.68;;;3.47;;
27839;SDS011;15207;42.182;24.308;2023-04-15T00:25:16;6.47;;;3.83;;
27839;SDS011;15207;42.182;24.308;2023-04-15T00:27:42;8.25;;;4.65;;
27839;SDS011;15207;42.182;24.308;2023-04-15T00:30:07;9.10;;;4.80;;
27839;SDS011;15207;42.182;24.308;2023-04-15T00:32:42;7.47;;;4.25;;
27839;SDS011;15207;42.182;24.308;2023-04-15T00:35:08;6.57;;;3.42;;
27839;SDS011;15207;42.182;24.308;2023-04-15T00:37:34;4.70;;;3.00;;
27839;SDS011;15207;42.182;24.308;2023-04-15T00:40:00;4.45;;;2.80;;
27839;SDS011;15207;42.182;24.308;2023-04-15T00:42:27;5.93;;;3.30;;
27839;SDS011;15207;42.182;24.308;2023-04-15T00:44:53;5.55;;;2.72;;
27839;SDS011;15207;42.182;24.308;2023-04-15T00:47:18;5.10;;;2.40;;
27839;SDS011;15207;42.182;24.308;2023-04-15T00:49:45;3.88;;;2.25;;
27839;SDS011;15207;42.182;24.308;2023-04-15T00:52:11;3.92;;;2.33;;
27839;SDS011;15207;42.182;24.308;2023-04-15T00:54:37;5.22;;;2.70;;
27839;SDS011;15207;42.182;24.308;2023-04-15T00:57:04;4.60;;;2.35;;
27839;SDS011;15207;42.182;24.308;2023-04-15T00:59:30;3.35;;;2.33;;
27839;SDS011;15207;42.182;24.308;2023-04-15T01:01:57;4.70;;;2.40;;
27839;SDS011;15207;42.182;24.308;2023-04-15T01:04:23;4.57;;;2.33;;
27839;SDS011;15207;42.182;24.308;2023-04-15T01:06:49;3.42;;;2.40;;
27839;SDS011;15207;42.182;24.308;2023-04-15T01:09:15;4.18;;;2.33;;
27839;SDS011;15207;42.182;24.308;2023-04-15T01:11:41;3.97;;;2.50;;
27839;SDS011;15207;42.182;24.308;2023-04-15T01:14:07;5.05;;;2.63;;
27839;SDS011;15207;42.182;24.308;2023-04-15T01:16:34;5.72;;;2.47;;
27839;SDS011;15207;42.182;24.308;2023-04-15T01:19:00;3.92;;;2.38;;
27839;SDS011;15207;42.182;24.308;2023-04-15T01:21:26;5.05;;;2.53;;
27839;SDS011;15207;42.182;24.308;2023-04-15T01:23:52;5.22;;;2.75;;
27839;SDS011;15207;42.182;24.308;2023-04-15T01:26:20;4.57;;;2.17;;
27839;SDS011;15207;42.182;24.308;2023-04-15T01:28:47;3.08;;;2.05;;
27839;SDS011;15207;42.182;24.308;2023-04-15T01:31:13;6.05;;;2.63;;
27839;SDS011;15207;42.182;24.308;2023-04-15T01:33:39;4.97;;;2.83;;
27839;SDS011;15207;42.182;24.308;2023-04-15T01:36:07;3.95;;;1.98;;
27839;SDS011;15207;42.182;24.308;2023-04-15T01:38:34;2.78;;;1.70;;
27839;SDS011;15207;42.182;24.308;2023-04-15T01:41:03;3.60;;;1.65;;
27839;SDS011;15207;42.182;24.308;2023-04-15T01:43:28;5.35;;;1.60;;
27839;SDS011;15207;42.182;24.308;2023-04-15T01:45:54;2.10;;;1.70;;
27839;SDS011;15207;42.182;24.308;2023-04-15T01:48:20;3.30;;;1.77;;
27839;SDS011;15207;42.182;24.308;2023-04-15T01:50:47;1.92;;;1.33;;
27839;SDS011;15207;42.182;24.308;2023-04-15T01:53:12;1.70;;;1.50;;
27839;SDS011;15207;42.182;24.308;2023-04-15T01:55:38;1.90;;;1.48;;
27839;SDS011;15207;42.182;24.308;2023-04-15T01:58:03;3.65;;;1.70;;
27839;SDS011;15207;42.182;24.308;2023-04-15T02:00:29;6.47;;;2.20;;
27839;SDS011;15207;42.182;24.308;2023-04-15T02:02:56;4.63;;;2.55;;
27839;SDS011;15207;42.182;24.308;2023-04-15T02:05:23;4.15;;;2.05;;
27839;SDS011;15207;42.182;24.308;2023-04-15T02:07:49;5.60;;;2.25;;
27839;SDS011;15207;42.182;24.308;2023-04-15T02:10:15;3.63;;;2.10;;
27839;SDS011;15207;42.182;24.308;2023-04-15T02:12:40;2.45;;;2.00;;
27839;SDS011;15207;42.182;24.308;2023-04-15T02:15:06;3.03;;;2.05;;
27839;SDS011;15207;42.182;24.308;2023-04-15T02:17:36;3.53;;;2.00;;
27839;SDS011;15207;42.182;24.308;2023-04-15T02:20:02;3.33;;;2.35;;
27839;SDS011;15207;42.182;24.308;2023-04-15T02:22:30;4.35;;;2.47;;
27839;SDS011;15207;42.182;24.308;2023-04-15T02:24:55;4.55;;;2.15;;
27839;SDS011;15207;42.182;24.308;2023-04-15T02:27:21;5.63;;;3.08;;
27839;SDS011;15207;42.182;24.308;2023-04-15T02:29:46;4.15;;;2.38;;
27839;SDS011;15207;42.182;24.308;2023-04-15T02:32:12;4.80;;;2.72;;
27839;SDS011;15207;42.182;24.308;2023-04-15T02:34:38;5.18;;;2.67;;
27839;SDS011;15207;42.182;24.308;2023-04-15T02:37:07;3.92;;;2.58;;
27839;SDS011;15207;42.182;24.308;2023-04-15T02:39:35;2.55;;;1.90;;
27839;SDS011;15207;42.182;24.308;2023-04-15T02:42:00;5.07;;;3.03;;
27839;SDS011;15207;42.182;24.308;2023-04-15T02:44:26;4.22;;;2.75;;
27839;SDS011;15207;42.182;24.308;2023-04-15T02:46:52;5.40;;;2.72;;
27839;SDS011;15207;42.182;24.308;2023-04-15T02:49:19;5.45;;;2.72;;
27839;SDS011;15207;42.182;24.308;2023-04-15T02:51:45;4.00;;;2.70;;
27839;SDS011;15207;42.182;24.308;2023-04-15T02:54:14;4.43;;;2.70;;
27839;SDS011;15207;42.182;24.308;2023-04-15T02:56:40;4.78;;;2.47;;
27839;SDS011;15207;42.182;24.308;2023-04-15T02:59:06;4.40;;;2.40;;
27839;SDS011;15207;42.182;24.308;2023-04-15T03:01:32;5.18;;;2.22;;
27839;SDS011;15207;42.182;24.308;2023-04-15T03:03:57;4.28;;;1.88;;
27839;SDS011;15207;42.182;24.308;2023-04-15T03:06:23;4.35;;;1.73;;
27839;SDS011;15207;42.182;24.308;2023-04-15T03:08:48;3.08;;;1.90;;
27839;SDS011;15207;42.182;24.308;2023-04-15T03:11:14;2.95;;;1.52;;
27839;SDS011;15207;42.182;24.308;2023-04-15T03:13:41;3.03;;;1.88;;
27839;SDS011;15207;42.182;24.308;2023-04-15T03:16:07;3.20;;;1.95;;
27839;SDS011;15207;42.182;24.308;2023-04-15T03:18:33;3.95;;;2.00;;
27839;SDS011;15207;42.182;24.308;2023-04-15T03:20:58;2.28;;;1.75;;
27839;SDS011;15207;42.182;24.308;2023-04-15T03:23:24;2.78;;;2.00;;
27839;SDS011;15207;42.182;24.308;2023-04-15T03:25:49;4.25;;;1.85;;
27839;SDS011;15207;42.182;24.308;2023-04-15T03:28:15;2.05;;;1.75;;
27839;SDS011;15207;42.182;24.308;2023-04-15T03:30:40;3.65;;;2.40;;
27839;SDS011;15207;42.182;24.308;2023-04-15T03:33:06;4.03;;;2.10;;
27839;SDS011;15207;42.182;24.308;2023-04-15T03:35:32;3.55;;;2.47;;
27839;SDS011;15207;42.182;24.308;2023-04-15T03:37:58;4.85;;;2.30;;
27839;SDS011;15207;42.182;24.308;2023-04-15T03:40:24;3.75;;;2.15;;
27839;SDS011;15207;42.182;24.308;2023-04-15T03:42:49;2.95;;;2.00;;
27839;SDS011;15207;42.182;24.308;2023-04-15T03:45:15;3.70;;;2.30;;
27839;SDS011;15207;42.182;24.308;2023-04-15T03:47:40;3.55;;;1.92;;
27839;SDS011;15207;42.182;24.308;2023-04-15T03:50:06;3.97;;;2.35;;
27839;SDS011;15207;42.182;24.308;2023-04-15T03:52:32;4.13;;;1.88;;
27839;SDS011;15207;42.182;24.308;2023-04-15T03:54:58;4.47;;;2.05;;
27839;SDS011;15207;42.182;24.308;2023-04-15T03:57:23;3.60;;;2.17;;
27839;SDS011;15207;42.182;24.308;2023-04-15T03:59:49;2.65;;;1.88;;
27839;SDS011;15207;42.182;24.308;2023-04-15T04:02:14;2.30;;;1.67;;
27839;SDS011;15207;42.182;24.308;2023-04-15T04:04:40;5.38;;;2.10;;
27839;SDS011;15207;42.182;24.308;2023-04-15T04:07:05;3.05;;;2.00;;
27839;SDS011;15207;42.182;24.308;2023-04-15T04:09:31;3.85;;;2.30;;
27839;SDS011;15207;42.182;24.308;2023-04-15T04:11:56;4.57;;;2.05;;
27839;SDS011;15207;42.182;24.308;2023-04-15T04:14:22;2.83;;;2.45;;
27839;SDS011;15207;42.182;24.308;2023-04-15T04:16:53;4.97;;;2.38;;
27839;SDS011;15207;42.182;24.308;2023-04-15T04:19:18;6.03;;;2.70;;
27839;SDS011;15207;42.182;24.308;2023-04-15T04:21:44;6.07;;;2.65;;
27839;SDS011;15207;42.182;24.308;2023-04-15T04:24:10;5.32;;;3.10;;
27839;SDS011;15207;42.182;24.308;2023-04-15T04:26:36;5.32;;;2.90;;
27839;SDS011;15207;42.182;24.308;2023-04-15T04:29:01;5.47;;;3.70;;
27839;SDS011;15207;42.182;24.308;2023-04-15T04:31:27;6.75;;;4.07;;
27839;SDS011;15207;42.182;24.308;2023-04-15T04:33:52;7.32;;;4.88;;
27839;SDS011;15207;42.182;24.308;2023-04-15T04:36:18;4.93;;;3.65;;
27839;SDS011;15207;42.182;24.308;2023-04-15T04:38:43;7.68;;;3.72;;
27839;SDS011;15207;42.182;24.308;2023-04-15T04:41:09;3.95;;;3.20;;
27839;SDS011;15207;42.182;24.308;2023-04-15T04:43:34;5.32;;;3.08;;
27839;SDS011;15207;42.182;24.308;2023-04-15T04:46:00;6.10;;;2.75;;
27839;SDS011;15207;42.182;24.308;2023-04-15T04:48:25;5.97;;;2.75;;
27839;SDS011;15207;42.182;24.308;2023-04-15T04:50:51;5.07;;;2.80;;
27839;SDS011;15207;42.182;24.308;2023-04-15T04:53:17;3.85;;;2.50;;
27839;SDS011;15207;42.182;24.308;2023-04-15T04:55:42;7.43;;;2.58;;
27839;SDS011;15207;42.182;24.308;2023-04-15T04:58:08;5.40;;;3.03;;
27839;SDS011;15207;42.182;24.308;2023-04-15T05:00:33;6.38;;;4.10;;
27839;SDS011;15207;42.182;24.308;2023-04-15T05:02:59;12.07;;;6.60;;
27839;SDS011;15207;42.182;24.308;2023-04-15T05:05:25;13.15;;;5.93;;
27839;SDS011;15207;42.182;24.308;2023-04-15T05:07:51;7.78;;;3.15;;
27839;SDS011;15207;42.182;24.308;2023-04-15T05:10:16;4.28;;;2.28;;
27839;SDS011;15207;42.182;24.308;2023-04-15T05:12:42;5.20;;;2.80;;
27839;SDS011;15207;42.182;24.308;2023-04-15T05:15:08;2.60;;;1.90;;
27839;SDS011;15207;42.182;24.308;2023-04-15T05:17:34;5.80;;;2.38;;
27839;SDS011;15207;42.182;24.308;2023-04-15T05:20:00;4.88;;;2.28;;
27839;SDS011;15207;42.182;24.308;2023-04-15T05:22:26;3.97;;;2.20;;
27839;SDS011;15207;42.182;24.308;2023-04-15T05:24:51;2.50;;;2.10;;
27839;SDS011;15207;42.182;24.308;2023-04-15T05:27:17;4.65;;;2.00;;
27839;SDS011;15207;42.182;24.308;2023-04-15T05:29:43;4.13;;;2.67;;
27839;SDS011;15207;42.182;24.308;2023-04-15T05:32:09;5.20;;;2.80;;
27839;SDS011;15207;42.182;24.308;2023-04-15T05:34:34;4.13;;;2.38;;
27839;SDS011;15207;42.182;24.308;2023-04-15T05:37:00;4.47;;;2.22;;
27839;SDS011;15207;42.182;24.308;2023-04-15T05:39:26;5.55;;;2.53;;
27839;SDS011;15207;42.182;24.308;2023-04-15T05:41:51;3.70;;;2.22;;
27839;SDS011;15207;42.182;24.308;2023-04-15T05:44:17;3.40;;;1.98;;
27839;SDS011;15207;42.182;24.308;2023-04-15T05:46:43;4.82;;;2.60;;
27839;SDS011;15207;42.182;24.308;2023-04-15T05:49:08;4.72;;;2.45;;
27839;SDS011;15207;42.182;24.308;2023-04-15T05:51:34;4.97;;;2.42;;
27839;SDS011;15207;42.182;24.308;2023-04-15T05:54:00;5.10;;;2.42;;
27839;SDS011;15207;42.182;24.308;2023-04-15T05:56:25;5.32;;;2.22;;
27839;SDS011;15207;42.182;24.308;2023-04-15T05:58:51;2.80;;;2.00;;
27839;SDS011;15207;42.182;24.308;2023-04-15T06:01:17;2.53;;;1.73;;
27839;SDS011;15207;42.182;24.308;2023-04-15T06:03:42;3.58;;;1.83;;
27839;SDS011;15207;42.182;24.308;2023-04-15T06:06:08;2.78;;;1.67;;
27839;SDS011;15207;42.182;24.308;2023-04-15T06:08:34;3.05;;;2.08;;
27839;SDS011;15207;42.182;24.308;2023-04-15T06:10:59;4.53;;;2.40;;
27839;SDS011;15207;42.182;24.308;2023-04-15T06:13:25;4.70;;;2.08;;
27839;SDS011;15207;42.182;24.308;2023-04-15T06:15:51;2.97;;;1.90;;
27839;SDS011;15207;42.182;24.308;2023-04-15T06:18:17;2.47;;;1.60;;
27839;SDS011;15207;42.182;24.308;2023-04-15T06:20:43;4.25;;;2.20;;
27839;SDS011;15207;42.182;24.308;2023-04-15T06:23:09;4.43;;;2.15;;
27839;SDS011;15207;42.182;24.308;2023-04-15T06:25:35;5.25;;;2.15;;
27839;SDS011;15207;42.182;24.308;2023-04-15T06:28:00;3.35;;;2.35;;
27839;SDS011;15207;42.182;24.308;2023-04-15T06:30:26;4.68;;;2.40;;
27839;SDS011;15207;42.182;24.308;2023-04-15T06:32:51;3.40;;;2.00;;
27839;SDS011;15207;42.182;24.308;2023-04-15T06:35:17;4.80;;;2.47;;
27839;SDS011;15207;42.182;24.308;2023-04-15T06:37:43;3.65;;;2.28;;
27839;SDS011;15207;42.182;24.308;2023-04-15T06:40:08;3.45;;;2.28;;
27839;SDS011;15207;42.182;24.308;2023-04-15T06:42:34;3.72;;;2.13;;
27839;SDS011;15207;42.182;24.308;2023-04-15T06:45:01;3.05;;;2.10;;
27839;SDS011;15207;42.182;24.308;2023-04-15T06:47:26;4.03;;;2.45;;
27839;SDS011;15207;42.182;24.308;2023-04-15T06:49:51;4.00;;;2.20;;
27839;SDS011;15207;42.182;24.308;2023-04-15T06:52:17;3.97;;;2.25;;
27839;SDS011;15207;42.182;24.308;2023-04-15T06:54:43;4.00;;;2.20;;
27839;SDS011;15207;42.182;24.308;2023-04-15T06:57:08;4.25;;;2.47;;
27839;SDS011;15207;42.182;24.308;2023-04-15T06:59:34;3.65;;;2.10;;
27839;SDS011;15207;42.182;24.308;2023-04-15T07:02:00;3.88;;;2.20;;
27839;SDS011;15207;42.182;24.308;2023-04-15T07:04:25;5.43;;;2.28;;
27839;SDS011;15207;42.182;24.308;2023-04-15T07:06:52;4.25;;;2.35;;
27839;SDS011;15207;42.182;24.308;2023-04-15T07:09:20;5.85;;;2.47;;
27839;SDS011;15207;42.182;24.308;2023-04-15T07:11:46;2.72;;;1.98;;
27839;SDS011;15207;42.182;24.308;2023-04-15T07:14:11;7.43;;;2.60;;
27839;SDS011;15207;42.182;24.308;2023-04-15T07:16:37;9.02;;;2.95;;
27839;SDS011;15207;42.182;24.308;2023-04-15T07:19:02;4.75;;;3.22;;
27839;SDS011;15207;42.182;24.308;2023-04-15T07:21:28;6.28;;;3.28;;
27839;SDS011;15207;42.182;24.308;2023-04-15T07:23:53;5.45;;;3.17;;
27839;SDS011;15207;42.182;24.308;2023-04-15T07:26:19;5.80;;;2.97;;
27839;SDS011;15207;42.182;24.308;2023-04-15T07:28:44;4.68;;;3.10;;
27839;SDS011;15207;42.182;24.308;2023-04-15T07:31:11;4.97;;;3.05;;
27839;SDS011;15207;42.182;24.308;2023-04-15T07:33:37;5.65;;;2.83;;
27839;SDS011;15207;42.182;24.308;2023-04-15T07:36:02;4.82;;;2.72;;
27839;SDS011;15207;42.182;24.308;2023-04-15T07:38:28;4.32;;;2.70;;
27839;SDS011;15207;42.182;24.308;2023-04-15T07:40:54;8.00;;;3.25;;
27839;SDS011;15207;42.182;24.308;2023-04-15T07:43:20;7.43;;;3.00;;
27839;SDS011;15207;42.182;24.308;2023-04-15T07:45:46;5.80;;;2.90;;
27839;SDS011;15207;42.182;24.308;2023-04-15T07:48:11;4.55;;;3.03;;
27839;SDS011;15207;42.182;24.308;2023-04-15T07:50:37;12.27;;;4.05;;
27839;SDS011;15207;42.182;24.308;2023-04-15T07:53:02;7.88;;;3.20;;
27839;SDS011;15207;42.182;24.308;2023-04-15T07:55:28;4.90;;;2.58;;
27839;SDS011;15207;42.182;24.308;2023-04-15T07:57:54;6.10;;;2.50;;
27839;SDS011;15207;42.182;24.308;2023-04-15T08:00:20;4.28;;;2.28;;
27839;SDS011;15207;42.182;24.308;2023-04-15T08:02:46;4.47;;;2.20;;
27839;SDS011;15207;42.182;24.308;2023-04-15T08:05:12;5.32;;;2.42;;
27839;SDS011;15207;42.182;24.308;2023-04-15T08:07:38;3.58;;;2.70;;
27839;SDS011;15207;42.182;24.308;2023-04-15T08:10:05;8.07;;;3.25;;
27839;SDS011;15207;42.182;24.308;2023-04-15T08:12:31;4.63;;;3.45;;
27839;SDS011;15207;42.182;24.308;2023-04-15T08:14:56;6.82;;;3.63;;
27839;SDS011;15207;42.182;24.308;2023-04-15T08:17:22;4.78;;;3.13;;
27839;SDS011;15207;42.182;24.308;2023-04-15T08:19:48;6.32;;;3.38;;
27839;SDS011;15207;42.182;24.308;2023-04-15T08:22:13;5.55;;;3.88;;
27839;SDS011;15207;42.182;24.308;2023-04-15T08:24:39;6.65;;;3.40;;
27839;SDS011;15207;42.182;24.308;2023-04-15T08:27:05;6.07;;;3.85;;
27839;SDS011;15207;42.182;24.308;2023-04-15T08:29:31;8.57;;;3.97;;
27839;SDS011;15207;42.182;24.308;2023-04-15T08:32:00;5.82;;;3.42;;
27839;SDS011;15207;42.182;24.308;2023-04-15T08:34:26;5.85;;;3.30;;
27839;SDS011;15207;42.182;24.308;2023-04-15T08:36:52;6.40;;;2.97;;
27839;SDS011;15207;42.182;24.308;2023-04-15T08:39:18;6.07;;;3.38;;
27839;SDS011;15207;42.182;24.308;2023-04-15T08:44:25;4.15;;;2.70;;
27839;SDS011;15207;42.182;24.308;2023-04-15T08:46:55;5.35;;;2.53;;
27839;SDS011;15207;42.182;24.308;2023-04-15T08:49:25;5.47;;;3.17;;
27839;SDS011;15207;42.182;24.308;2023-04-15T08:51:51;6.15;;;3.67;;
27839;SDS011;15207;42.182;24.308;2023-04-15T08:54:17;8.82;;;3.60;;
27839;SDS011;15207;42.182;24.308;2023-04-15T08:56:43;7.53;;;3.90;;
27839;SDS011;15207;42.182;24.308;2023-04-15T08:59:09;5.95;;;3.38;;
27839;SDS011;15207;42.182;24.308;2023-04-15T09:01:36;5.57;;;3.78;;
27839;SDS011;15207;42.182;24.308;2023-04-15T09:04:02;8.70;;;3.65;;
27839;SDS011;15207;42.182;24.308;2023-04-15T09:06:30;10.50;;;3.90;;
27839;SDS011;15207;42.182;24.308;2023-04-15T09:08:56;3.95;;;3.00;;
27839;SDS011;15207;42.182;24.308;2023-04-15T09:11:21;5.30;;;2.67;;
27839;SDS011;15207;42.182;24.308;2023-04-15T09:13:47;4.40;;;3.03;;
27839;SDS011;15207;42.182;24.308;2023-04-15T09:16:13;4.30;;;2.80;;
27839;SDS011;15207;42.182;24.308;2023-04-15T09:18:39;4.95;;;3.20;;
27839;SDS011;15207;42.182;24.308;2023-04-15T09:23:39;9.00;;;3.85;;
27839;SDS011;15207;42.182;24.308;2023-04-15T09:26:17;4.30;;;3.00;;
27839;SDS011;15207;42.182;24.308;2023-04-15T09:28:43;6.00;;;2.57;;
27839;SDS011;15207;42.182;24.308;2023-04-15T09:31:08;6.00;;;3.00;;
27839;SDS011;15207;42.182;24.308;2023-04-15T09:33:35;5.00;;;3.30;;
27839;SDS011;15207;42.182;24.308;2023-04-15T09:36:18;4.15;;;2.78;;
27839;SDS011;15207;42.182;24.308;2023-04-15T09:38:56;4.65;;;2.53;;
27839;SDS011;15207;42.182;24.308;2023-04-15T09:41:24;5.55;;;2.72;;
27839;SDS011;15207;42.182;24.308;2023-04-15T09:43:50;6.57;;;2.38;;
27839;SDS011;15207;42.182;24.308;2023-04-15T09:46:16;3.20;;;1.90;;
27839;SDS011;15207;42.182;24.308;2023-04-15T09:48:42;4.82;;;2.40;;
27839;SDS011;15207;42.182;24.308;2023-04-15T09:51:07;5.10;;;2.90;;
27839;SDS011;15207;42.182;24.308;2023-04-15T09:53:34;3.85;;;2.33;;
27839;SDS011;15207;42.182;24.308;2023-04-15T09:56:02;6.13;;;2.70;;
27839;SDS011;15207;42.182;24.308;2023-04-15T09:58:31;3.10;;;2.17;;
27839;SDS011;15207;42.182;24.308;2023-04-15T10:00:59;2.50;;;2.00;;
27839;SDS011;15207;42.182;24.308;2023-04-15T10:03:27;4.00;;;1.80;;
27839;SDS011;15207;42.182;24.308;2023-04-15T10:05:54;3.00;;;2.23;;
27839;SDS011;15207;42.182;24.308;2023-04-15T10:08:22;4.60;;;1.90;;
27839;SDS011;15207;42.182;24.308;2023-04-15T10:10:50;5.05;;;1.65;;
27839;SDS011;15207;42.182;24.308;2023-04-15T10:13:20;2.80;;;1.50;;
27839;SDS011;15207;42.182;24.308;2023-04-15T10:15:57;3.30;;;1.85;;
27839;SDS011;15207;42.182;24.308;2023-04-15T10:18:25;3.70;;;1.80;;
27839;SDS011;15207;42.182;24.308;2023-04-15T10:20:52;4.87;;;2.00;;
27839;SDS011;15207;42.182;24.308;2023-04-15T10:23:18;4.00;;;1.60;;
27839;SDS011;15207;42.182;24.308;2023-04-15T10:25:46;2.15;;;1.30;;
27839;SDS011;15207;42.182;24.308;2023-04-15T10:28:13;4.60;;;1.45;;
27839;SDS011;15207;42.182;24.308;2023-04-15T10:30:40;6.00;;;1.60;;
27839;SDS011;15207;42.182;24.308;2023-04-15T10:33:07;1.80;;;1.30;;
27839;SDS011;15207;42.182;24.308;2023-04-15T10:35:34;2.83;;;1.38;;
27839;SDS011;15207;42.182;24.308;2023-04-15T10:38:00;1.20;;;1.10;;
27839;SDS011;15207;42.182;24.308;2023-04-15T10:40:29;2.20;;;1.60;;
27839;SDS011;15207;42.182;24.308;2023-04-15T10:43:02;3.42;;;1.33;;
27839;SDS011;15207;42.182;24.308;2023-04-15T10:45:31;4.05;;;1.45;;
27839;SDS011;15207;42.182;24.308;2023-04-15T10:48:00;3.15;;;1.58;;
27839;SDS011;15207;42.182;24.308;2023-04-15T10:50:27;2.90;;;1.52;;
27839;SDS011;15207;42.182;24.308;2023-04-15T10:52:55;4.60;;;1.50;;
27839;SDS011;15207;42.182;24.308;2023-04-15T10:55:31;4.15;;;1.60;;
27839;SDS011;15207;42.182;24.308;2023-04-15T10:57:58;6.38;;;2.40;;
27839;SDS011;15207;42.182;24.308;2023-04-15T11:00:29;3.33;;;1.63;;
27839;SDS011;15207;42.182;24.308;2023-04-15T11:03:06;3.08;;;1.95;;
27839;SDS011;15207;42.182;24.308;2023-04-15T11:08:14;2.53;;;1.50;;
27839;SDS011;15207;42.182;24.308;2023-04-15T11:15:41;3.30;;;1.50;;
27839;SDS011;15207;42.182;24.308;2023-04-15T11:18:13;5.88;;;1.60;;
27839;SDS011;15207;42.182;24.308;2023-04-15T11:20:56;4.07;;;1.80;;
27839;SDS011;15207;42.182;24.308;2023-04-15T11:23:31;4.10;;;1.60;;
27839;SDS011;15207;42.182;24.308;2023-04-15T11:26:03;5.72;;;1.80;;
27839;SDS011;15207;42.182;24.308;2023-04-15T11:28:33;3.60;;;2.00;;
27839;SDS011;15207;42.182;24.308;2023-04-15T11:31:06;2.67;;;1.55;;
27839;SDS011;15207;42.182;24.308;2023-04-15T11:33:32;3.70;;;1.45;;
27839;SDS011;15207;42.182;24.308;2023-04-15T11:35:58;2.42;;;1.65;;
27839;SDS011;15207;42.182;24.308;2023-04-15T11:41:09;5.85;;;2.20;;
27839;SDS011;15207;42.182;24.308;2023-04-15T11:43:35;2.15;;;1.20;;
27839;SDS011;15207;42.182;24.308;2023-04-15T11:46:01;2.30;;;1.20;;
27839;SDS011;15207;42.182;24.308;2023-04-15T11:48:29;4.50;;;1.60;;
27839;SDS011;15207;42.182;24.308;2023-04-15T11:51:00;2.40;;;1.35;;
27839;SDS011;15207;42.182;24.308;2023-04-15T11:53:46;3.57;;;1.73;;
27839;SDS011;15207;42.182;24.308;2023-04-15T11:56:20;2.37;;;1.67;;
27839;SDS011;15207;42.182;24.308;2023-04-15T11:58:47;2.30;;;1.38;;
27839;SDS011;15207;42.182;24.308;2023-04-15T12:01:14;2.70;;;1.90;;
27839;SDS011;15207;42.182;24.308;2023-04-15T12:03:41;3.53;;;1.40;;
27839;SDS011;15207;42.182;24.308;2023-04-15T12:14:39;2.03;;;1.10;;
27839;SDS011;15207;42.182;24.308;2023-04-15T12:17:06;3.53;;;1.40;;
27839;SDS011;15207;42.182;24.308;2023-04-15T12:22:04;2.85;;;1.33;;
27839;SDS011;15207;42.182;24.308;2023-04-15T12:24:33;3.20;;;1.08;;
27839;SDS011;15207;42.182;24.308;2023-04-15T12:29:32;3.15;;;1.05;;
27839;SDS011;15207;42.182;24.308;2023-04-15T12:32:09;2.75;;;1.45;;
27839;SDS011;15207;42.182;24.308;2023-04-15T12:34:37;1.50;;;0.90;;
27839;SDS011;15207;42.182;24.308;2023-04-15T12:37:07;1.77;;;0.93;;
27839;SDS011;15207;42.182;24.308;2023-04-15T12:39:35;3.10;;;1.30;;
27839;SDS011;15207;42.182;24.308;2023-04-15T12:42:03;0.82;;;0.80;;
27839;SDS011;15207;42.182;24.308;2023-04-15T12:44:29;1.48;;;1.00;;
27839;SDS011;15207;42.182;24.308;2023-04-15T12:46:55;1.80;;;1.00;;
27839;SDS011;15207;42.182;24.308;2023-04-15T12:49:21;2.55;;;1.20;;
27839;SDS011;15207;42.182;24.308;2023-04-15T12:51:48;3.47;;;1.67;;
27839;SDS011;15207;42.182;24.308;2023-04-15T12:54:16;1.42;;;0.95;;
27839;SDS011;15207;42.182;24.308;2023-04-15T12:56:42;3.47;;;1.20;;
27839;SDS011;15207;42.182;24.308;2023-04-15T12:59:08;1.25;;;0.85;;
27839;SDS011;15207;42.182;24.308;2023-04-15T13:01:34;3.15;;;1.40;;
27839;SDS011;15207;42.182;24.308;2023-04-15T13:04:00;3.55;;;1.20;;
27839;SDS011;15207;42.182;24.308;2023-04-15T13:06:26;2.75;;;1.10;;
27839;SDS011;15207;42.182;24.308;2023-04-15T13:08:53;3.92;;;1.58;;
27839;SDS011;15207;42.182;24.308;2023-04-15T13:11:19;2.65;;;1.40;;
27839;SDS011;15207;42.182;24.308;2023-04-15T13:13:47;3.83;;;1.58;;
27839;SDS011;15207;42.182;24.308;2023-04-15T13:16:13;3.90;;;2.33;;
27839;SDS011;15207;42.182;24.308;2023-04-15T13:18:38;5.40;;;2.47;;
27839;SDS011;15207;42.182;24.308;2023-04-15T13:21:04;3.72;;;2.40;;
27839;SDS011;15207;42.182;24.308;2023-04-15T13:23:31;4.22;;;2.60;;
27839;SDS011;15207;42.182;24.308;2023-04-15T13:25:57;3.25;;;2.25;;
27839;SDS011;15207;42.182;24.308;2023-04-15T13:28:23;3.88;;;2.53;;
27839;SDS011;15207;42.182;24.308;2023-04-15T13:30:48;3.83;;;2.55;;
27839;SDS011;15207;42.182;24.308;2023-04-15T13:33:15;4.25;;;2.50;;
27839;SDS011;15207;42.182;24.308;2023-04-15T13:35:41;5.20;;;2.08;;
27839;SDS011;15207;42.182;24.308;2023-04-15T13:38:07;3.97;;;2.20;;
27839;SDS011;15207;42.182;24.308;2023-04-15T13:40:32;4.57;;;2.08;;
27839;SDS011;15207;42.182;24.308;2023-04-15T13:42:58;3.92;;;2.38;;
27839;SDS011;15207;42.182;24.308;2023-04-15T13:45:24;3.78;;;2.35;;
27839;SDS011;15207;42.182;24.308;2023-04-15T13:47:50;3.05;;;2.00;;
27839;SDS011;15207;42.182;24.308;2023-04-15T13:50:15;2.55;;;1.67;;
27839;SDS011;15207;42.182;24.308;2023-04-15T13:52:41;5.30;;;2.35;;
27839;SDS011;15207;42.182;24.308;2023-04-15T13:55:07;2.40;;;2.00;;
27839;SDS011;15207;42.182;24.308;2023-04-15T13:57:32;3.03;;;2.00;;
27839;SDS011;15207;42.182;24.308;2023-04-15T13:59:58;3.63;;;1.90;;
27839;SDS011;15207;42.182;24.308;2023-04-15T14:02:24;3.65;;;2.10;;
27839;SDS011;15207;42.182;24.308;2023-04-15T14:04:49;4.93;;;2.20;;
27839;SDS011;15207;42.182;24.308;2023-04-15T14:07:15;3.08;;;2.00;;
27839;SDS011;15207;42.182;24.308;2023-04-15T14:09:42;3.58;;;1.90;;
27839;SDS011;15207;42.182;24.308;2023-04-15T14:12:08;4.65;;;2.20;;
27839;SDS011;15207;42.182;24.308;2023-04-15T14:14:34;4.32;;;1.63;;
27839;SDS011;15207;42.182;24.308;2023-04-15T14:16:59;3.78;;;1.88;;
27839;SDS011;15207;42.182;24.308;2023-04-15T14:19:25;3.30;;;1.85;;
27839;SDS011;15207;42.182;24.308;2023-04-15T14:21:50;2.85;;;1.55;;
27839;SDS011;15207;42.182;24.308;2023-04-15T14:24:16;2.58;;;1.98;;
27839;SDS011;15207;42.182;24.308;2023-04-15T14:26:41;2.78;;;1.83;;
27839;SDS011;15207;42.182;24.308;2023-04-15T14:29:08;3.58;;;1.60;;
27839;SDS011;15207;42.182;24.308;2023-04-15T14:31:34;4.75;;;1.83;;
27839;SDS011;15207;42.182;24.308;2023-04-15T14:33:59;2.20;;;1.80;;
27839;SDS011;15207;42.182;24.308;2023-04-15T14:36:25;5.93;;;1.77;;
27839;SDS011;15207;42.182;24.308;2023-04-15T14:38:51;1.90;;;1.23;;
27839;SDS011;15207;42.182;24.308;2023-04-15T14:41:17;2.45;;;1.55;;
27839;SDS011;15207;42.182;24.308;2023-04-15T14:43:42;3.67;;;1.70;;
27839;SDS011;15207;42.182;24.308;2023-04-15T14:46:07;3.58;;;1.50;;
27839;SDS011;15207;42.182;24.308;2023-04-15T14:48:34;2.15;;;1.30;;
27839;SDS011;15207;42.182;24.308;2023-04-15T14:51:00;2.38;;;1.27;;
27839;SDS011;15207;42.182;24.308;2023-04-15T14:53:26;2.60;;;1.20;;
27839;SDS011;15207;42.182;24.308;2023-04-15T14:55:51;3.20;;;1.40;;
27839;SDS011;15207;42.182;24.308;2023-04-15T14:58:17;2.78;;;1.13;;